Ojibwa, Wisconsin
Current Conditions -  °F | °C
As of 6:55 AM on Wednesday 26 Nov 2014 (Local Time) from KRCX Reporting Station
Overcast Overcast  
Wind Chill: 13°   Ceiling: 7000
Heat Index: 21°   Visibility: 10mi
Dew Point: 18°   Wind: 7mph
Humidity: 88%   Direction: 100°E
Pressure: 30.1"   Gusts: NA
Location:  45.8°N, 91.12°W
Report Text: KRCX 261255Z AUTO 10006KT 10SM SCT046 SCT055 OVC070 M06/M08 A3010 RMK AO2 T10591076
Loading
Personal Weather Stations






























Interactive Weather Map New forecast layout! Learn more

10-Day Weather Forecast

Advertisements
Track Severe Weather on mobile